Altoona Blair County Airport
KAOO : now visible

Airfield :











YOU CAN JOIN US ON...

 
LOGIN :

Register | Disclaimer

   EN    FR    IT 

 









Legend :    VFR   Marginal VFR   IFR   Intensive IFR   Very Intensive IFR
Visi :
Ceiling :
>= 8 km
>= 3000ft
5 to 8 km
1000 to 3000 ft
1500m to 5 km
500 to 1000 ft
800 to 1500m
200 to 500 ft
< 800m
< 200 ft
Symbols :   Thunderstorms  Fog  Heavy snow  Heavy precipitations  Wind > 20 kt






- Airport Elevation : 1503 ft
- IATA code : AOO


KAOO - Altoona Blair County

CURRENT METAR :
  • 160953Z AUTO 30011G19KT 10SM SCT022 BKN028 BKN036 04/M01 A2975 RMK AO2 RAE05 SLP083 P0000 T00391006 $

EXPIRED METARs :
  • 160853Z AUTO 30011KT 8SM -RA SCT018 OVC026 03/00 A2976 RMK AO2 RAB48 SLP087 P0000 60001 T00330000 56003 $
  • 160831Z AUTO 30010G19KT 10SM BKN024 OVC050 04/M01 A2976 RMK AO2 T00391006 $
  • 160753Z AUTO 30010G18KT 10SM SCT024 SCT031 OVC050 04/M01 A2976 RMK AO2 SLP087 T00391006 $
  • 160750Z AUTO 30012G18KT 10SM SCT024 SCT031 OVC050 04/M01 A2976 RMK AO2 $

TAF KAOO
Valid from the 16 at 09:00 until the 17 at 06:00 UTC


160926Z 1609/1706 30012G18KT P6SM VCSH OVC025
FM161400 30016G28KT P6SM VCSH OVC022
FM162000 28017G25KT P6SM OVC015
KZOB FIR / North America



MET'MAP, your aeronautical weather chart ! - Copyright ORBIFLY December 2007 - Disclaimer

ORBIFLY MET'MAP TEAM :

Programming & Development : Alexandra Zaïnal
Concept & original design : Baudouin d'Aumeries
Assistance for programming : Marc-Olivier Méhu
Technical & hardware support : Manuel Goepfert

Contact : metmap@orbifly.com




SOURCES & CREDITS :

   NOAA       Earth
Advisory